Time;durP1;ratioP1;P1;durP2;ratioP2;P2;SDS_P1;SDS_P2;PMS_P1;PMS_P2;Temp;Humidity;BMP_temperature;BMP_pressure;BME280_temperature;BME280_humidity;BME280_pressure;Samples;Min_cycle;Max_cycle;Signal;HPM_P1;HPM_P2
2022/05/30 00:00:18;;;;;;;1999.90;999.90;;;;;;;12.44;54.54;94800.66;4988523;28;20026;-65
2022/05/30 00:02:43;;;;;;;1999.90;999.90;;;;;;;12.40;54.72;94799.72;4989284;28;20084;-65
2022/05/30 00:05:11;;;;;;;1999.90;999.90;;;;;;;12.32;54.45;94775.78;4990245;28;20038;-65
2022/05/30 00:07:38;;;;;;;1999.90;999.90;;;;;;;12.36;55.02;94788.13;4990841;28;20036;-65
2022/05/30 00:10:06;;;;;;;1999.90;999.90;;;;;;;12.29;54.99;94774.53;4988482;28;20487;-65
2022/05/30 00:12:31;;;;;;;1999.90;999.90;;;;;;;12.27;54.99;94774.06;4991227;28;20030;-65
2022/05/30 00:14:57;;;;;;;1999.90;999.90;;;;;;;12.35;54.67;94797.25;4990293;28;20034;-65
2022/05/30 00:17:22;;;;;;;1999.90;999.90;;;;;;;12.24;55.12;94780.06;4988600;28;20702;-65
2022/05/30 00:19:48;;;;;;;1999.90;999.90;;;;;;;12.17;54.79;94772.56;4988529;28;20030;-65
2022/05/30 00:22:14;;;;;;;1999.90;999.90;;;;;;;12.08;54.41;94765.69;4989659;28;20026;-65
2022/05/30 00:24:41;;;;;;;1999.90;999.90;;;;;;;12.19;54.63;94788.25;4977976;28;20027;-65
2022/05/30 00:27:07;;;;;;;1999.90;999.90;;;;;;;12.15;54.74;94779.31;4971746;28;20027;-65
2022/05/30 00:29:33;;;;;;;1999.90;999.90;;;;;;;12.07;54.68;94780.91;4982616;28;20092;-65
2022/05/30 00:31:58;;;;;;;1999.90;999.90;;;;;;;11.64;54.59;94709.16;4986084;28;20027;-65
2022/05/30 00:34:25;;;;;;;1999.90;999.90;;;;;;;12.00;54.63;94755.88;4989243;28;20026;-65
2022/05/30 00:36:50;;;;;;;1999.90;999.90;;;;;;;11.99;54.84;94765.00;4989650;28;20019;-66
2022/05/30 00:39:15;;;;;;;1999.90;999.90;;;;;;;11.94;54.52;94761.41;4988183;28;20048;-66
2022/05/30 00:41:41;;;;;;;1999.90;999.90;;;;;;;12.07;54.74;94785.47;4989077;28;20042;-65
2022/05/30 00:44:06;;;;;;;1999.90;999.90;;;;;;;11.92;54.73;94760.13;4987682;28;20054;-65
2022/05/30 00:46:32;;;;;;;1999.90;999.90;;;;;;;11.80;54.61;94741.38;4986468;28;20101;-65
2022/05/30 00:49:06;;;;;;;1999.90;999.90;;;;;;;11.83;54.62;94754.88;4988183;28;20384;-66
2022/05/30 00:51:46;;;;;;;1999.90;999.90;;;;;;;11.97;54.82;94771.41;4989199;28;20383;-66
2022/05/30 00:54:27;;;;;;;1999.90;999.90;;;;;;;11.88;54.68;94768.00;4986493;28;20550;-66
2022/05/30 00:56:55;;;;;;;1999.90;999.90;;;;;;;11.93;54.58;94775.06;4989381;28;20026;-66
2022/05/30 00:59:21;;;;;;;1999.90;999.90;;;;;;;11.89;54.77;94774.91;4987037;28;20034;-66
2022/05/30 01:01:46;;;;;;;1999.90;999.90;;;;;;;11.70;54.49;94742.50;4986934;28;20097;-66
2022/05/30 01:07:04;;;;;;;1999.90;999.90;;;;;;;11.76;55.08;94765.19;4971279;28;20499;-66
2022/05/30 01:09:36;;;;;;;1999.90;999.90;;;;;;;11.68;55.28;94750.03;4987063;28;20035;-65
2022/05/30 01:12:10;;;;;;;1999.90;999.90;;;;;;;11.77;55.39;94756.09;4989394;28;20026;-66
2022/05/30 01:14:38;;;;;;;1999.90;999.90;;;;;;;11.62;55.05;94735.34;4989049;28;20022;-66
2022/05/30 01:17:08;;;;;;;1999.90;999.90;;;;;;;11.70;55.23;94745.16;4987520;28;20031;-66
2022/05/30 01:19:52;;;;;;;1999.90;999.90;;;;;;;11.66;55.49;94749.56;4989993;28;20451;-67
2022/05/30 01:22:32;;;;;;;1999.90;999.90;;;;;;;11.62;55.13;94732.69;4989211;28;20018;-66
2022/05/30 01:25:14;;;;;;;1999.90;999.90;;;;;;;11.76;54.88;94753.75;4989507;28;20027;-66
2022/05/30 01:27:48;;;;;;;1999.90;999.90;;;;;;;11.71;55.35;94750.16;4988820;28;20026;-66
2022/05/30 01:30:15;;;;;;;1999.90;999.90;;;;;;;11.62;55.34;94735.34;4984478;28;20110;-65
2022/05/30 01:32:41;;;;;;;1999.90;999.90;;;;;;;11.62;54.84;94722.03;4990039;28;20030;-65
2022/05/30 01:35:08;;;;;;;1999.90;999.90;;;;;;;11.77;55.19;94745.44;4992072;23;20089;-67
2022/05/30 01:37:34;;;;;;;1999.90;999.90;;;;;;;11.66;55.49;94723.69;4968287;28;20031;-67
2022/05/30 01:39:59;;;;;;;1999.90;999.90;;;;;;;11.71;54.99;94726.19;4967255;28;20037;-68
2022/05/30 01:42:25;;;;;;;1999.90;999.90;;;;;;;11.70;55.08;94734.50;4970558;28;20027;-67
2022/05/30 01:44:52;;;;;;;1999.90;999.90;;;;;;;11.63;54.83;94723.59;4972207;28;20061;-67
2022/05/30 01:47:17;;;;;;;1999.90;999.90;;;;;;;11.60;55.42;94732.19;4970320;28;20027;-67
2022/05/30 01:49:43;;;;;;;1999.90;999.90;;;;;;;11.59;55.67;94727.97;4971569;28;20042;-67
2022/05/30 01:52:09;;;;;;;1999.90;999.90;;;;;;;11.65;55.88;94735.47;4973598;28;20019;-68
2022/05/30 01:54:35;;;;;;;1999.90;999.90;;;;;;;11.61;55.30;94721.22;4970753;28;20030;-67
2022/05/30 01:57:01;;;;;;;1999.90;999.90;;;;;;;11.57;55.19;94717.66;4971902;28;20030;-67
2022/05/30 01:59:26;;;;;;;1999.90;999.90;;;;;;;11.70;55.03;94723.84;4972557;28;20034;-67
2022/05/30 02:01:51;;;;;;;1999.90;999.90;;;;;;;11.61;54.57;94704.47;4972154;28;20031;-67
2022/05/30 02:04:18;;;;;;;1999.90;999.90;;;;;;;11.63;54.61;94696.94;4970752;28;20062;-67
2022/05/30 02:06:44;;;;;;;1999.90;999.90;;;;;;;11.69;54.76;94712.41;4972440;28;20030;-68
2022/05/30 02:09:10;;;;;;;1999.90;999.90;;;;;;;11.66;55.11;94702.38;4972540;28;20523;-66
2022/05/30 02:11:36;;;;;;;1999.90;999.90;;;;;;;11.68;55.24;94710.09;4972534;28;20030;-66
2022/05/30 02:14:02;;;;;;;1999.90;999.90;;;;;;;11.65;55.28;94694.72;4973201;28;20058;-66
2022/05/30 02:19:15;;;;;;;1999.90;999.90;;;;;;;11.67;55.06;94698.66;4972756;28;20041;-66
2022/05/30 02:21:40;;;;;;;1999.90;999.90;;;;;;;11.73;55.15;94704.56;4971167;28;20113;-69
2022/05/30 02:24:09;;;;;;;1999.90;999.90;;;;;;;11.77;55.51;94707.34;4970923;28;20062;-69
2022/05/30 02:26:35;;;;;;;1999.90;999.90;;;;;;;11.88;55.00;94719.25;4973795;28;20026;-69
2022/05/30 02:29:02;;;;;;;1999.90;999.90;;;;;;;11.94;55.57;94717.97;4970066;28;20038;-68
2022/05/30 02:31:28;;;;;;;1999.90;999.90;;;;;;;11.84;55.03;94707.69;4971779;28;20752;-69
2022/05/30 02:36:41;;;;;;;1999.90;999.90;;;;;;;12.00;54.99;94714.00;4973654;28;20054;-68
2022/05/30 02:39:07;;;;;;;1999.90;999.90;;;;;;;12.08;55.20;94717.72;4968080;28;20027;-68
2022/05/30 02:41:33;;;;;;;1999.90;999.90;;;;;;;12.02;54.98;94708.34;4954103;28;20484;-68
2022/05/30 02:43:58;;;;;;;1999.90;999.90;;;;;;;12.04;55.23;94703.50;4963424;28;20043;-68
2022/05/30 02:46:24;;;;;;;1999.90;999.90;;;;;;;12.15;54.85;94718.78;4971670;28;20034;-68
2022/05/30 02:48:49;;;;;;;1999.90;999.90;;;;;;;12.14;54.59;94711.13;4970666;28;20043;-68
2022/05/30 02:51:15;;;;;;;1999.90;999.90;;;;;;;12.22;54.52;94726.25;4973067;28;20101;-67
2022/05/30 02:53:40;;;;;;;1999.90;999.90;;;;;;;12.18;54.15;94717.34;4971423;28;20384;-68
2022/05/30 02:56:06;;;;;;;1999.90;999.90;;;;;;;12.09;54.02;94705.97;4971464;28;20038;-68
2022/05/30 02:58:32;;;;;;;1999.90;999.90;;;;;;;12.10;54.51;94712.84;4968883;28;20487;-68
2022/05/30 03:00:58;;;;;;;1999.90;999.90;;;;;;;12.25;54.12;94722.97;4971225;28;20031;-68
2022/05/30 03:03:23;;;;;;;1999.90;999.90;;;;;;;12.18;54.28;94715.47;4972752;28;20034;-68
2022/05/30 03:05:48;;;;;;;1999.90;999.90;;;;;;;12.18;54.03;94712.00;4971567;28;20538;-68
2022/05/30 03:08:14;;;;;;;1999.90;999.90;;;;;;;12.16;54.24;94709.66;4972578;28;20109;-68
2022/05/30 03:10:39;;;;;;;1999.90;999.90;;;;;;;12.23;54.32;94725.97;4970198;28;20380;-69
2022/05/30 03:13:06;;;;;;;1999.90;999.90;;;;;;;12.28;54.02;94724.19;4970695;28;20042;-68
2022/05/30 03:15:31;;;;;;;1999.90;999.90;;;;;;;12.22;53.88;94703.03;4969845;28;20054;-67
2022/05/30 03:17:57;;;;;;;1999.90;999.90;;;;;;;12.26;53.56;94710.41;4972396;28;20458;-68
2022/05/30 03:20:23;;;;;;;1999.90;999.90;;;;;;;12.16;53.81;94714.22;4971241;28;20038;-68
2022/05/30 03:22:49;;;;;;;1999.90;999.90;;;;;;;11.60;54.37;94709.00;4972717;28;20129;-68
2022/05/30 03:25:15;;;;;;;1999.90;999.90;;;;;;;11.74;54.60;94706.13;4970798;28;20115;-68
2022/05/30 03:27:41;;;;;;;1999.90;999.90;;;;;;;12.11;54.32;94715.19;4970534;28;20077;-68
2022/05/30 03:30:08;;;;;;;1999.90;999.90;;;;;;;12.34;54.18;94726.34;4968338;28;20030;-69
2022/05/30 03:32:34;;;;;;;1999.90;999.90;;;;;;;12.46;54.11;94710.41;4970424;28;20034;-68
2022/05/30 03:34:59;;;;;;;1999.90;999.90;;;;;;;12.37;53.95;94683.00;4971227;28;20101;-68
2022/05/30 03:37:25;;;;;;;1999.90;999.90;;;;;;;12.67;53.82;94706.94;4972289;28;20019;-68
2022/05/30 03:39:51;;;;;;;1999.90;999.90;;;;;;;12.73;53.23;94706.41;4967772;28;20038;-68
2022/05/30 03:42:16;;;;;;;1999.90;999.90;;;;;;;12.80;53.19;94705.91;4970523;28;20072;-68
2022/05/30 03:44:42;;;;;;;1999.90;999.90;;;;;;;12.87;53.19;94706.13;4971030;28;20419;-69
2022/05/30 03:47:08;;;;;;;1999.90;999.90;;;;;;;13.11;52.67;94716.13;4970430;28;20106;-68
2022/05/30 03:49:34;;;;;;;1999.90;999.90;;;;;;;13.12;52.47;94707.00;4969504;28;20049;-68
2022/05/30 03:51:59;;;;;;;1999.90;999.90;;;;;;;13.39;52.15;94713.63;4968290;28;20057;-68
2022/05/30 03:54:26;;;;;;;1999.90;999.90;;;;;;;13.49;52.03;94715.88;4971041;28;20020;-68
2022/05/30 03:56:51;;;;;;;1999.90;999.90;;;;;;;13.61;51.65;94723.13;4968122;28;20403;-68
2022/05/30 03:59:17;;;;;;;1999.90;999.90;;;;;;;13.70;51.39;94718.47;4969526;28;20023;-68
2022/05/30 04:01:42;;;;;;;1999.90;999.90;;;;;;;13.90;51.29;94730.16;4969890;28;20027;-68
2022/05/30 04:04:08;;;;;;;1999.90;999.90;;;;;;;14.04;50.66;94716.47;4969335;28;20042;-68
2022/05/30 04:06:33;;;;;;;1999.90;999.90;;;;;;;14.38;50.47;94733.13;4970081;28;20062;-68
2022/05/30 04:08:59;;;;;;;1999.90;999.90;;;;;;;14.45;50.24;94728.78;4968731;28;20027;-68
2022/05/30 04:11:24;;;;;;;1999.90;999.90;;;;;;;14.52;49.53;94726.31;4970318;28;20097;-68
2022/05/30 04:13:50;;;;;;;1999.90;999.90;;;;;;;14.86;49.32;94729.56;4970581;28;20042;-68
2022/05/30 04:16:16;;;;;;;1999.90;999.90;;;;;;;15.15;48.87;94715.06;4970006;28;20030;-68
2022/05/30 04:18:42;;;;;;;1999.90;999.90;;;;;;;15.47;48.12;94723.91;4967246;28;20683;-68
2022/05/30 04:21:10;;;;;;;1999.90;999.90;;;;;;;15.64;48.20;94714.00;4964060;28;20121;-68
2022/05/30 04:23:36;;;;;;;1999.90;999.90;;;;;;;15.84;47.62;94731.72;4970605;28;20085;-68
2022/05/30 04:26:06;;;;;;;1999.90;999.90;;;;;;;15.88;46.82;94729.94;4969158;28;20030;-69
2022/05/30 04:28:32;;;;;;;1999.90;999.90;;;;;;;15.98;46.82;94736.66;4968308;28;20090;-68
2022/05/30 04:30:57;;;;;;;1999.90;999.90;;;;;;;15.85;46.49;94727.94;4970548;28;20035;-68
2022/05/30 04:33:22;;;;;;;1999.90;999.90;;;;;;;15.80;46.78;94739.69;4969545;28;20033;-68
2022/05/30 04:35:48;;;;;;;1999.90;999.90;;;;;;;15.75;47.00;94744.53;4971306;28;20034;-67
2022/05/30 04:38:13;;;;;;;1999.90;999.90;;;;;;;15.71;47.20;94749.03;4968740;28;20043;-69
2022/05/30 04:40:39;;;;;;;1999.90;999.90;;;;;;;15.76;47.54;94746.84;4971212;28;20120;-68
2022/05/30 04:43:04;;;;;;;1999.90;999.90;;;;;;;15.82;46.91;94742.03;4969404;28;20070;-67
2022/05/30 04:45:29;;;;;;;1999.90;999.90;;;;;;;16.10;46.82;94748.06;4958231;28;20034;-67
2022/05/30 04:47:55;;;;;;;1999.90;999.90;;;;;;;16.47;46.54;94746.97;4969713;28;20035;-68
2022/05/30 04:50:20;;;;;;;1999.90;999.90;;;;;;;16.86;45.99;94745.13;4969767;28;20113;-68
2022/05/30 04:52:46;;;;;;;1999.90;999.90;;;;;;;17.16;45.29;94737.28;4971212;28;20022;-69
2022/05/30 04:55:14;;;;;;;1999.90;999.90;;;;;;;17.49;44.54;94733.25;4968477;28;20030;-67
2022/05/30 04:57:45;;;;;;;1999.90;999.90;;;;;;;17.70;44.16;94740.91;4971009;28;20043;-68
2022/05/30 05:00:13;;;;;;;1999.90;999.90;;;;;;;17.80;43.34;94743.81;4968066;28;20069;-68
2022/05/30 05:02:39;;;;;;;1999.90;999.90;;;;;;;17.66;42.95;94744.34;4950549;29;20086;-68
2022/05/30 05:05:05;;;;;;;1999.90;999.90;;;;;;;17.84;43.29;94730.44;4964692;28;20419;-68
2022/05/30 05:07:39;;;;;;;1999.90;999.90;;;;;;;18.07;43.25;94730.41;4970843;28;20037;-69
2022/05/30 05:10:34;;;;;;;1999.90;999.90;;;;;;;18.13;43.26;94737.81;4965926;28;20023;-67
2022/05/30 05:12:59;;;;;;;1999.90;999.90;;;;;;;18.22;42.70;94729.50;4962768;28;20065;-78
2022/05/30 05:15:24;;;;;;;1999.90;999.90;;;;;;;18.09;43.07;94736.22;4963586;28;20070;-68
2022/05/30 05:17:50;;;;;;;1999.90;999.90;;;;;;;17.60;43.03;94751.13;4971771;28;20802;-69
2022/05/30 05:20:15;;;;;;;1999.90;999.90;;;;;;;17.96;42.22;94749.06;4973587;28;20031;-69
2022/05/30 05:22:41;;;;;;;1999.90;999.90;;;;;;;17.90;41.98;94745.91;4973779;28;20038;-69
2022/05/30 05:25:07;;;;;;;1999.90;999.90;;;;;;;17.78;42.53;94731.88;4972192;28;20034;-71
2022/05/30 05:27:32;;;;;;;1999.90;999.90;;;;;;;18.03;42.07;94748.41;4988273;28;20023;-69
2022/05/30 05:29:58;;;;;;;1999.90;999.90;;;;;;;17.99;41.81;94744.88;4969627;28;20034;-69
2022/05/30 05:32:23;;;;;;;1999.90;999.90;;;;;;;18.08;41.52;94740.81;4972002;28;20479;-69
2022/05/30 05:34:50;;;;;;;1999.90;999.90;;;;;;;18.36;40.77;94740.44;4972420;28;20026;-71
2022/05/30 05:37:17;;;;;;;1999.90;999.90;;;;;;;18.41;40.84;94736.66;4973605;28;20029;-70
2022/05/30 05:39:43;;;;;;;1999.90;999.90;;;;;;;18.57;41.10;94753.44;4968454;28;20037;-70
2022/05/30 05:42:08;;;;;;;1999.90;999.90;;;;;;;18.40;40.84;94725.13;4970545;28;20027;-68
2022/05/30 05:44:34;;;;;;;1999.90;999.90;;;;;;;18.44;39.83;94735.97;4972766;28;21047;-70
2022/05/30 05:46:59;;;;;;;1999.90;999.90;;;;;;;18.28;39.87;94730.72;4976360;28;20034;-72
2022/05/30 05:49:25;;;;;;;1999.90;999.90;;;;;;;18.42;40.10;94738.22;4981645;28;20042;-70
2022/05/30 05:51:57;;;;;;;1999.90;999.90;;;;;;;18.28;40.71;94717.28;4984521;28;20039;-68
2022/05/30 05:54:23;;;;;;;;;;;;;;;18.50;40.59;94739.13;4971216;28;20031;-69
2022/05/30 05:56:49;;;;;;;1999.90;999.90;;;;;;;17.75;41.01;94724.50;4973548;28;19918;-69
2022/05/30 05:59:16;;;;;;;1999.90;999.90;;;;;;;17.76;41.30;94715.28;4973605;28;20387;-70
2022/05/30 06:01:41;;;;;;;1999.90;999.90;;;;;;;17.45;41.72;94708.22;4973762;28;20089;-71
2022/05/30 06:04:08;;;;;;;1999.90;999.90;;;;;;;17.93;41.59;94722.91;4978303;28;20498;-68
2022/05/30 06:06:34;;;;;;;1999.90;999.90;;;;;;;17.97;41.86;94722.97;4993889;28;20109;-70
2022/05/30 06:09:01;;;;;;;1999.90;999.90;;;;;;;18.17;41.79;94725.19;4977003;28;20158;-69
2022/05/30 06:11:28;;;;;;;1999.90;999.90;;;;;;;17.64;42.06;94725.06;4974651;28;20031;-71
2022/05/30 06:13:54;;;;;;;1999.90;999.90;;;;;;;17.65;41.85;94715.09;4973276;28;20029;-73
2022/05/30 06:16:26;;;;;;;1999.90;999.90;;;;;;;17.64;42.17;94733.16;4973578;28;20035;-72
2022/05/30 06:18:54;;;;;;;1999.90;999.90;;;;;;;17.79;41.74;94728.03;4973869;28;20022;-69
2022/05/30 06:21:21;;;;;;;1999.90;999.90;;;;;;;17.97;41.74;94734.50;4978924;28;20034;-71
2022/05/30 06:23:47;;;;;;;1999.90;999.90;;;;;;;17.45;42.03;94740.47;4972438;28;20034;-70
2022/05/30 06:26:14;;;;;;;1999.90;999.90;;;;;;;16.33;44.03;94728.66;4974141;28;20419;-70
2022/05/30 06:28:41;;;;;;;1999.90;999.90;;;;;;;16.98;42.64;94739.59;4972603;28;20061;-69
2022/05/30 06:31:19;;;;;;;1999.90;999.90;;;;;;;17.40;42.43;94738.84;4971918;28;20035;-69
2022/05/30 06:33:45;;;;;;;1999.90;999.90;;;;;;;17.65;42.07;94740.06;4972476;28;20027;-70
2022/05/30 06:36:13;;;;;;;1999.90;999.90;;;;;;;16.87;42.88;94733.25;4977275;28;20038;-70
2022/05/30 06:38:39;;;;;;;1999.90;999.90;;;;;;;17.58;42.22;94742.66;4973323;28;20027;-70
2022/05/30 06:41:14;;;;;;;1999.90;999.90;;;;;;;17.57;41.79;94730.34;4973782;28;20029;-69
2022/05/30 06:43:40;;;;;;;1999.90;999.90;;;;;;;17.59;41.77;94746.13;4972452;28;20031;-71
2022/05/30 06:46:06;;;;;;;1999.90;999.90;;;;;;;17.37;42.30;94739.59;4971194;28;20038;-70
2022/05/30 06:48:31;;;;;;;1999.90;999.90;;;;;;;17.05;42.78;94745.13;4973139;28;20027;-67
2022/05/30 06:50:57;;;;;;;1999.90;999.90;;;;;;;17.10;43.36;94741.41;4970580;28;20486;-69
2022/05/30 06:53:22;;;;;;;1999.90;999.90;;;;;;;17.46;42.65;94732.06;4973124;28;20491;-68
2022/05/30 06:55:50;;;;;;;1999.90;999.90;;;;;;;16.82;42.85;94741.59;4973700;28;20030;-70
2022/05/30 06:58:18;;;;;;;1999.90;999.90;;;;;;;16.35;43.92;94745.19;4973160;28;20109;-68
2022/05/30 07:00:46;;;;;;;1999.90;999.90;;;;;;;16.75;43.60;94747.59;4972144;28;20027;-67
2022/05/30 07:03:12;;;;;;;1999.90;999.90;;;;;;;16.76;42.52;94751.84;4972306;28;20033;-68
2022/05/30 07:05:39;;;;;;;1999.90;999.90;;;;;;;17.14;42.00;94752.97;4980510;28;20027;-67
2022/05/30 07:08:05;;;;;;;1999.90;999.90;;;;;;;16.97;42.24;94742.66;4977319;28;20029;-68
2022/05/30 07:10:32;;;;;;;1999.90;999.90;;;;;;;16.89;43.13;94749.81;4972881;28;20031;-66
2022/05/30 07:12:58;;;;;;;1999.90;999.90;;;;;;;17.61;42.51;94746.56;4971208;28;20030;-67
2022/05/30 07:15:25;;;;;;;1999.90;999.90;;;;;;;17.48;42.84;94750.53;4972162;28;20027;-68
2022/05/30 07:17:51;;;;;;;1999.90;999.90;;;;;;;17.70;41.63;94752.44;4971836;28;20097;-67
2022/05/30 07:20:17;;;;;;;1999.90;999.90;;;;;;;17.71;41.58;94747.84;4970687;28;20062;-68
2022/05/30 07:22:42;;;;;;;1999.90;999.90;;;;;;;18.18;41.17;94753.66;4974130;28;20037;-68
2022/05/30 07:25:08;;;;;;;1999.90;999.90;;;;;;;18.44;40.85;94758.28;4992928;28;20033;-68
2022/05/30 07:27:33;;;;;;;1999.90;999.90;;;;;;;18.43;40.85;94745.19;4991416;28;20109;-68
2022/05/30 07:29:59;;;;;;;1999.90;999.90;;;;;;;19.00;40.48;94753.28;4992346;28;20107;-68
2022/05/30 07:32:24;;;;;;;1999.90;999.90;;;;;;;19.10;39.12;94739.13;4991236;28;20483;-68
2022/05/30 07:34:50;;;;;;;1999.90;999.90;;;;;;;19.30;38.83;94756.69;4981180;28;20035;-68
2022/05/30 07:37:15;;;;;;;1999.90;999.90;;;;;;;19.58;37.99;94752.75;4972552;28;20046;-68
2022/05/30 07:39:41;;;;;;;1999.90;999.90;;;;;;;19.74;38.05;94746.00;4987079;28;20027;-69
2022/05/30 07:42:07;;;;;;;1999.90;999.90;;;;;;;19.63;38.40;94750.50;4976309;28;20468;-75
2022/05/30 07:44:32;;;;;;;1999.90;999.90;;;;;;;19.97;38.04;94756.63;4970991;28;20027;-69
2022/05/30 07:46:59;;;;;;;1999.90;999.90;;;;;;;19.83;37.42;94750.31;4971665;28;20102;-71
2022/05/30 07:49:25;;;;;;;1999.90;999.90;;;;;;;19.99;37.36;94767.03;4978185;28;20502;-70
2022/05/30 07:51:51;;;;;;;1999.90;999.90;;;;;;;19.29;38.15;94762.44;4986041;28;20090;-70
2022/05/30 07:54:16;;;;;;;1999.90;999.90;;;;;;;19.20;39.01;94777.00;4979427;28;20050;-70
2022/05/30 07:56:42;;;;;;;1999.90;999.90;;;;;;;19.42;38.48;94766.47;4990518;28;20077;-70
2022/05/30 07:59:08;;;;;;;1999.90;999.90;;;;;;;18.82;38.81;94771.91;4991514;28;20032;-69
2022/05/30 08:01:34;;;;;;;1999.90;999.90;;;;;;;18.88;39.38;94762.34;4986592;28;20062;-70
2022/05/30 08:04:00;;;;;;;1999.90;999.90;;;;;;;19.21;37.55;94775.09;4970032;28;20081;-70
2022/05/30 08:06:29;;;;;;;1999.90;999.90;;;;;;;18.74;38.38;94773.72;4971489;28;20030;-69
2022/05/30 08:08:55;;;;;;;1999.90;999.90;;;;;;;19.73;37.67;94773.34;4970864;28;20085;-69
2022/05/30 08:11:21;;;;;;;1999.90;999.90;;;;;;;20.13;36.85;94767.16;4990118;28;20042;-69
2022/05/30 08:13:47;;;;;;;1999.90;999.90;;;;;;;20.44;37.19;94771.25;4972152;28;20031;-70
2022/05/30 08:16:31;;;;;;;1999.90;999.90;;;;;;;20.62;35.72;94765.97;4972345;28;20431;-69
2022/05/30 08:18:56;;;;;;;1999.90;999.90;;;;;;;20.73;35.30;94761.41;4966876;28;20098;-70
2022/05/30 08:21:21;;;;;;;1999.90;999.90;;;;;;;21.00;35.55;94769.28;4972364;28;20019;-70
2022/05/30 08:23:47;;;;;;;1999.90;999.90;;;;;;;21.85;34.44;94763.34;4969366;28;20051;-70
2022/05/30 08:26:15;;;;;;;1999.90;999.90;;;;;;;22.22;34.22;94770.41;4971641;28;20031;-69
2022/05/30 08:28:40;;;;;;;1999.90;999.90;;;;;;;21.04;34.22;94770.06;4968615;28;20038;-70
2022/05/30 08:31:06;;;;;;;1999.90;999.90;;;;;;;21.63;33.57;94778.78;4972080;28;20034;-70
2022/05/30 08:33:31;;;;;;;1999.90;999.90;;;;;;;21.66;33.94;94771.84;4969716;28;20033;-70
2022/05/30 08:36:08;;;;;;;1999.90;999.90;;;;;;;21.22;34.02;94775.53;4970442;28;20499;-70
2022/05/30 08:38:37;;;;;;;1999.90;999.90;;;;;;;20.55;35.45;94786.78;4970535;28;20030;-70
2022/05/30 08:43:56;;;;;;;1999.90;999.90;;;;;;;21.07;34.63;94773.94;4977489;28;20177;-69
2022/05/30 08:46:24;;;;;;;1999.90;999.90;;;;;;;22.09;33.75;94780.03;4952634;28;20031;-69
2022/05/30 08:49:09;;;;;;;1999.90;999.90;;;;;;;20.52;34.60;94761.28;4963749;28;20054;-69
2022/05/30 08:52:02;;;;;;;1999.90;999.90;;;;;;;20.47;34.20;94794.03;4971226;28;20476;-70
2022/05/30 08:54:51;;;;;;;1999.90;999.90;;;;;;;21.56;32.45;94783.44;4952261;28;20039;-69
2022/05/30 08:57:32;;;;;;;1999.90;999.90;;;;;;;21.80;32.62;94772.66;4959548;28;20038;-70
2022/05/30 09:00:13;;;;;;;1999.90;999.90;;;;;;;22.71;31.74;94788.53;4971079;28;20027;-69
2022/05/30 09:02:54;;;;;;;1999.90;999.90;;;;;;;23.22;30.55;94781.06;4978117;28;20117;-70
2022/05/30 09:05:34;;;;;;;1999.90;999.90;;;;;;;23.33;30.14;94789.94;4970842;28;20038;-70
2022/05/30 09:08:04;;;;;;;1999.90;999.90;;;;;;;22.79;31.26;94781.16;4968967;28;20289;-68
2022/05/30 09:11:00;;;;;;;1999.90;999.90;;;;;;;20.63;33.72;94781.06;4969341;28;20023;-71
2022/05/30 09:13:33;;;;;;;1999.90;999.90;;;;;;;20.37;34.09;94803.63;4971787;28;20026;-71
2022/05/30 09:16:04;;;;;;;1999.90;999.90;;;;;;;20.31;33.66;94790.81;4987638;28;20026;-71
2022/05/30 09:18:44;;;;;;;1999.90;999.90;;;;;;;20.52;33.81;94788.28;4969491;28;20038;-70
2022/05/30 09:21:10;;;;;;;1999.90;999.90;;;;;;;19.67;33.52;94797.19;4970369;28;20090;-73
2022/05/30 09:23:36;;;;;;;1999.90;999.90;;;;;;;20.24;33.54;94794.25;4971186;28;20031;-70
2022/05/30 09:26:03;;;;;;;1999.90;999.90;;;;;;;20.41;32.77;94788.19;4971065;28;20031;-70
2022/05/30 09:28:35;;;;;;;1999.90;999.90;;;;;;;20.75;32.51;94780.72;4971467;28;20081;-71
2022/05/30 09:31:22;;;;;;;1999.90;999.90;;;;;;;21.70;32.44;94786.16;4970536;28;20034;-72
2022/05/30 09:33:52;;;;;;;1999.90;999.90;;;;;;;20.80;30.75;94787.72;4984012;28;20039;-73
2022/05/30 09:36:19;;;;;;;1999.90;999.90;;;;;;;20.84;31.58;94793.16;4969623;28;20034;-70
2022/05/30 09:39:07;;;;;;;1999.90;999.90;;;;;;;21.18;31.29;94797.16;4969233;28;20089;-70
2022/05/30 09:41:38;;;;;;;1999.90;999.90;;;;;;;22.62;30.15;94788.16;4970755;28;20063;-72
2022/05/30 09:44:18;;;;;;;1999.90;999.90;;;;;;;23.45;29.44;94781.38;4988519;28;20046;-72
2022/05/30 09:46:54;;;;;;;1999.90;999.90;;;;;;;23.47;30.00;94783.69;4975349;28;20039;-72
2022/05/30 09:49:23;;;;;;;1999.90;999.90;;;;;;;23.32;30.76;94780.25;4969383;28;20034;-72
2022/05/30 09:51:52;;;;;;;1999.90;999.90;;;;;;;22.31;30.26;94766.09;4970997;28;20416;-72
2022/05/30 09:54:24;;;;;;;1999.90;999.90;;;;;;;22.91;28.88;94783.47;4969804;28;20038;-72
2022/05/30 09:56:52;;;;;;;1999.90;999.90;;;;;;;21.57;30.46;94779.56;4969832;28;20026;-72
2022/05/30 09:59:23;;;;;;;1999.90;999.90;;;;;;;22.95;29.60;94783.47;4969113;28;20031;-72
2022/05/30 10:01:51;;;;;;;1999.90;999.90;;;;;;;23.27;27.79;94775.22;4968841;28;20065;-72
2022/05/30 10:04:28;;;;;;;1999.90;999.90;;;;;;;23.80;26.87;94783.16;4972188;28;20088;-72
2022/05/30 10:07:05;;;;;;;1999.90;999.90;;;;;;;24.05;26.92;94791.13;4972971;28;20023;-73
2022/05/30 10:09:33;;;;;;;1999.90;999.90;;;;;;;24.30;26.28;94777.34;4972984;28;20117;-72
2022/05/30 10:11:59;;;;;;;1999.90;999.90;;;;;;;24.84;25.36;94771.47;4974257;28;20047;-72
2022/05/30 10:14:29;;;;;;;1999.90;999.90;;;;;;;24.88;25.09;94783.84;4973134;28;20054;-71
2022/05/30 10:16:58;;;;;;;1999.90;999.90;;;;;;;24.76;25.20;94780.84;4972475;28;20026;-71
2022/05/30 10:19:31;;;;;;;1999.90;999.90;;;;;;;24.98;25.81;94773.25;4973409;28;20022;-71
2022/05/30 10:28:15;;;;;;;1999.90;999.90;;;;;;;24.85;26.25;94778.44;4973040;28;20174;-71
2022/05/30 10:31:10;;;;;;;1999.90;999.90;;;;;;;25.07;25.86;94749.84;4968891;28;20154;-73
2022/05/30 10:34:19;;;;;;;1999.90;999.90;;;;;;;24.90;24.92;94765.16;4972468;28;20118;-68
2022/05/30 10:37:01;;;;;;;1999.90;999.90;;;;;;;24.09;25.86;94769.34;4972417;28;20038;-71
2022/05/30 10:40:03;;;;;;;1999.90;999.90;;;;;;;20.64;30.16;94782.59;4972497;28;20022;-70
2022/05/30 10:42:48;;;;;;;1999.90;999.90;;;;;;;21.07;30.11;94785.53;4972157;28;20047;-70
2022/05/30 10:45:27;;;;;;;1999.90;999.90;;;;;;;22.03;29.01;94785.06;4973041;28;20030;-70
2022/05/30 10:47:55;;;;;;;1999.90;999.90;;;;;;;22.73;28.86;94780.81;4970760;28;20023;-69
2022/05/30 10:50:53;;;;;;;1999.90;999.90;;;;;;;22.96;28.54;94785.03;4972761;28;20110;-69
2022/05/30 10:53:35;;;;;;;1999.90;999.90;;;;;;;21.86;29.27;94777.69;4972311;28;20122;-70
2022/05/30 10:56:14;;;;;;;1999.90;999.90;;;;;;;22.79;28.44;94775.75;4973277;28;20038;-69
2022/05/30 10:58:58;;;;;;;1999.90;999.90;;;;;;;21.75;29.53;94781.16;4961415;28;20058;-69
2022/05/30 11:01:37;;;;;;;1999.90;999.90;;;;;;;22.06;29.04;94765.34;4973030;28;20498;-70
2022/05/30 11:04:24;;;;;;;1999.90;999.90;;;;;;;22.76;28.55;94776.53;4971639;28;20041;-70
2022/05/30 11:06:53;;;;;;;1999.90;999.90;;;;;;;23.20;27.64;94778.75;4971729;28;20109;-70
2022/05/30 11:09:30;;;;;;;1999.90;999.90;;;;;;;20.92;29.75;94794.72;4972085;28;20035;-70
2022/05/30 11:12:13;;;;;;;1999.90;999.90;;;;;;;22.22;28.58;94779.28;4969428;28;20035;-70
2022/05/30 11:15:06;;;;;;;1999.90;999.90;;;;;;;22.77;28.82;94784.25;4970055;28;20488;-70
2022/05/30 11:17:55;;;;;;;1999.90;999.90;;;;;;;22.95;27.92;94789.69;4971754;28;20039;-70
2022/05/30 11:20:31;;;;;;;1999.90;999.90;;;;;;;23.66;27.28;94793.31;4972706;28;20432;-70